createdAt,value
2022-08-21T00:00:14.597Z,79.67
2022-08-21T00:02:52.406Z,79.24
2022-08-21T00:05:19.330Z,78.38
2022-08-21T00:07:45.683Z,78.66
2022-08-21T00:10:12.531Z,78.35
2022-08-21T00:12:39.141Z,78.37
2022-08-21T00:15:06.686Z,78.76
2022-08-21T00:17:35.369Z,78.11
2022-08-21T00:20:01.793Z,77.39
2022-08-21T00:22:28.081Z,77.17
2022-08-21T00:24:54.380Z,76.14
2022-08-21T00:27:20.696Z,77.70
2022-08-21T00:29:46.994Z,76.62
2022-08-21T00:32:14.167Z,76.63
2022-08-21T00:34:40.486Z,77.58
2022-08-21T00:37:08.889Z,78.00
2022-08-21T00:39:35.237Z,76.91
2022-08-21T00:42:01.617Z,77.66
2022-08-21T00:44:27.937Z,77.46
2022-08-21T00:46:54.271Z,78.17
2022-08-21T00:49:20.934Z,77.39
2022-08-21T00:51:52.967Z,78.28
2022-08-21T00:54:20.073Z,78.47
2022-08-21T00:56:48.914Z,77.68
2022-08-21T00:59:17.120Z,78.03
2022-08-21T01:01:43.440Z,78.81
2022-08-21T01:04:09.762Z,78.85
2022-08-21T01:06:36.186Z,78.29
2022-08-21T01:09:03.265Z,77.59
2022-08-21T01:11:29.588Z,77.82
2022-08-21T01:13:56.102Z,77.84
2022-08-21T01:16:23.063Z,77.65
2022-08-21T01:18:50.124Z,76.66
2022-08-21T01:21:21.210Z,77.14
2022-08-21T01:23:49.406Z,77.23
2022-08-21T01:26:17.296Z,76.52
2022-08-21T01:28:49.666Z,76.54
2022-08-21T01:31:19.009Z,76.77
2022-08-21T01:33:52.953Z,76.75
2022-08-21T01:36:19.343Z,76.34
2022-08-21T01:38:45.676Z,74.97
2022-08-21T01:41:12.086Z,75.72
2022-08-21T01:43:39.930Z,75.67
2022-08-21T01:46:06.314Z,75.22
2022-08-21T01:48:32.667Z,75.29
2022-08-21T01:50:59.798Z,75.17
2022-08-21T01:53:27.741Z,74.58
2022-08-21T01:55:59.398Z,75.35
2022-08-21T01:58:25.711Z,75.37
2022-08-21T02:00:52.092Z,74.33
2022-08-21T02:03:23.278Z,74.68
2022-08-21T02:06:01.822Z,73.77
2022-08-21T02:08:28.977Z,73.12
2022-08-21T02:10:55.271Z,73.55
2022-08-21T02:13:22.179Z,73.54
2022-08-21T02:15:48.566Z,73.33
2022-08-21T02:18:14.961Z,74.17
2022-08-21T02:20:42.868Z,73.40
2022-08-21T02:23:09.977Z,74.13
2022-08-21T02:25:37.012Z,73.86
2022-08-21T02:28:05.098Z,74.55
2022-08-21T02:30:32.941Z,73.70
2022-08-21T02:32:59.402Z,73.76
2022-08-21T02:35:26.306Z,74.56
2022-08-21T02:37:55.600Z,74.35
2022-08-21T02:40:23.996Z,73.73
2022-08-21T02:42:50.629Z,74.42
2022-08-21T02:45:18.255Z,74.60
2022-08-21T02:47:50.939Z,74.02
2022-08-21T02:50:26.160Z,74.08
2022-08-21T02:52:55.029Z,74.79
2022-08-21T02:55:22.259Z,74.77
2022-08-21T02:57:49.171Z,74.99
2022-08-21T03:00:16.537Z,74.56
2022-08-21T03:02:43.051Z,75.17
2022-08-21T03:05:10.914Z,75.56
2022-08-21T03:07:37.865Z,74.94
2022-08-21T03:10:04.865Z,75.60
2022-08-21T03:12:31.180Z,75.29
2022-08-21T03:14:58.677Z,75.35
2022-08-21T03:17:29.791Z,75.22
2022-08-21T03:19:56.382Z,74.97
2022-08-21T03:22:22.698Z,74.44
2022-08-21T03:24:49.155Z,74.41
2022-08-21T03:27:16.321Z,75.11
2022-08-21T03:29:42.693Z,74.45
2022-08-21T03:32:11.819Z,74.85
2022-08-21T03:34:38.886Z,74.31
2022-08-21T03:37:06.427Z,74.61
2022-08-21T03:39:32.797Z,75.12
2022-08-21T03:42:00.818Z,74.30
2022-08-21T03:44:29.619Z,74.18
2022-08-21T03:46:56.341Z,74.42
2022-08-21T03:49:22.757Z,74.38
2022-08-21T03:51:49.601Z,74.51
2022-08-21T03:54:25.911Z,74.28
2022-08-21T03:56:55.426Z,74.64
2022-08-21T03:59:21.773Z,74.64
2022-08-21T04:01:54.293Z,75.07
2022-08-21T04:04:20.647Z,74.78
2022-08-21T04:06:47.001Z,75.79
2022-08-21T04:09:13.427Z,74.96
2022-08-21T04:11:39.814Z,75.10
2022-08-21T04:14:06.098Z,75.19
2022-08-21T04:16:32.429Z,75.93
2022-08-21T04:18:58.730Z,74.95
2022-08-21T04:21:25.023Z,75.66
2022-08-21T04:23:51.374Z,75.97
2022-08-21T04:26:17.903Z,75.78
2022-08-21T04:28:44.624Z,75.87
2022-08-21T04:31:11.017Z,76.42
2022-08-21T04:33:37.311Z,76.11
2022-08-21T04:36:04.201Z,75.96
2022-08-21T04:38:36.426Z,75.80
2022-08-21T04:41:03.064Z,75.76
2022-08-21T04:43:29.434Z,75.81
2022-08-21T04:45:55.782Z,76.49
2022-08-21T04:48:23.090Z,76.13
2022-08-21T04:51:02.164Z,76.40
2022-08-21T04:53:32.793Z,76.24
2022-08-21T04:56:02.000Z,75.78
2022-08-21T04:58:29.677Z,76.03
2022-08-21T05:00:57.282Z,76.92
2022-08-21T05:03:24.158Z,75.71
2022-08-21T05:05:50.532Z,75.64
2022-08-21T05:08:19.698Z,75.02
2022-08-21T05:10:46.195Z,75.42
2022-08-21T05:13:13.583Z,75.98
2022-08-21T05:15:40.610Z,74.82
2022-08-21T05:18:07.582Z,75.19
2022-08-21T05:20:35.365Z,75.05
2022-08-21T05:23:02.437Z,74.67
2022-08-21T05:25:28.790Z,74.63
2022-08-21T05:27:58.135Z,74.32
2022-08-21T05:30:27.252Z,74.19
2022-08-21T05:33:00.907Z,74.38
2022-08-21T05:35:28.372Z,74.01
2022-08-21T05:37:54.734Z,74.33
2022-08-21T05:40:23.231Z,74.69
2022-08-21T05:42:54.539Z,73.61
2022-08-21T05:45:41.392Z,74.52
2022-08-21T05:48:09.899Z,75.03
2022-08-21T05:50:37.323Z,74.88
2022-08-21T05:53:07.004Z,75.33
2022-08-21T05:55:34.409Z,75.66
2022-08-21T05:58:00.710Z,75.23
2022-08-21T06:00:27.069Z,74.43
2022-08-21T06:02:53.346Z,74.93
2022-08-21T06:05:36.459Z,75.25
2022-08-21T06:08:03.469Z,74.71
2022-08-21T06:10:30.649Z,74.81
2022-08-21T06:12:57.047Z,75.06
2022-08-21T06:15:23.585Z,74.59
2022-08-21T06:17:49.961Z,74.97
2022-08-21T06:20:16.264Z,75.69
2022-08-21T06:22:42.581Z,76.28
2022-08-21T06:25:10.235Z,74.60
2022-08-21T06:27:36.588Z,74.86
2022-08-21T06:30:03.581Z,74.96
2022-08-21T06:32:29.893Z,75.63
2022-08-21T06:34:56.232Z,74.72
2022-08-21T06:37:23.171Z,74.45
2022-08-21T06:39:49.685Z,75.24
2022-08-21T06:42:16.852Z,74.03
2022-08-21T06:44:43.930Z,73.13
2022-08-21T06:47:10.327Z,73.56
2022-08-21T06:49:37.097Z,74.02
2022-08-21T06:52:04.505Z,73.33
2022-08-21T06:54:31.669Z,73.80
2022-08-21T06:56:57.987Z,73.49
2022-08-21T06:59:24.294Z,73.28
2022-08-21T07:01:50.659Z,73.39
2022-08-21T07:04:17.042Z,72.04
2022-08-21T07:06:43.360Z,71.87
2022-08-21T07:09:10.823Z,72.10
2022-08-21T07:11:42.395Z,71.32
2022-08-21T07:14:20.370Z,71.49
2022-08-21T07:16:47.034Z,71.56
2022-08-21T07:19:13.540Z,71.58
2022-08-21T07:21:39.879Z,72.22
2022-08-21T07:24:06.255Z,71.36
2022-08-21T07:26:32.588Z,71.21
2022-08-21T07:28:58.874Z,71.27
2022-08-21T07:31:26.079Z,71.14
2022-08-21T07:33:52.418Z,70.70
2022-08-21T07:36:18.838Z,70.17
2022-08-21T07:38:45.944Z,69.56
2022-08-21T07:41:17.296Z,69.49
2022-08-21T07:43:45.947Z,69.63
2022-08-21T07:46:13.563Z,70.57
2022-08-21T07:48:40.355Z,70.14
2022-08-21T07:51:08.762Z,69.92
2022-08-21T07:53:36.578Z,70.40
2022-08-21T07:56:04.603Z,69.10
2022-08-21T07:58:31.809Z,68.02
2022-08-21T08:01:00.053Z,69.04
2022-08-21T08:03:29.133Z,68.50
2022-08-21T08:05:56.806Z,67.63
2022-08-21T08:08:23.128Z,69.43
2022-08-21T08:10:51.193Z,67.66
2022-08-21T08:13:17.592Z,67.16
2022-08-21T08:15:43.957Z,67.35
2022-08-21T08:18:10.268Z,65.69
2022-08-21T08:20:36.803Z,66.89
2022-08-21T08:23:03.357Z,65.84
2022-08-21T08:25:36.678Z,65.68
2022-08-21T08:28:03.688Z,66.61
2022-08-21T08:30:43.452Z,65.11
2022-08-21T08:33:09.991Z,64.25
2022-08-21T08:35:37.317Z,64.08
2022-08-21T08:38:05.537Z,63.99
2022-08-21T08:40:46.860Z,64.25
2022-08-21T08:43:14.466Z,63.38
2022-08-21T08:45:43.367Z,60.74
2022-08-21T08:48:14.234Z,60.96
2022-08-21T08:50:57.549Z,61.74
2022-08-21T08:53:32.986Z,61.71
2022-08-21T08:56:01.138Z,62.93
2022-08-21T08:58:32.956Z,61.58
2022-08-21T09:01:00.103Z,61.04
2022-08-21T09:03:27.563Z,60.77
2022-08-21T09:05:53.873Z,60.88
2022-08-21T09:08:35.548Z,60.84
2022-08-21T09:11:09.807Z,60.47
2022-08-21T09:13:55.065Z,61.36
2022-08-21T09:16:41.752Z,61.51
2022-08-21T09:19:28.844Z,60.93
2022-08-21T09:22:01.120Z,60.41
2022-08-21T09:24:39.049Z,61.41
2022-08-21T09:27:09.775Z,61.53
2022-08-21T09:29:40.934Z,61.84
2022-08-21T09:32:16.585Z,61.93
2022-08-21T09:34:56.156Z,61.55
2022-08-21T09:37:22.489Z,60.42
2022-08-21T09:39:49.038Z,61.96
2022-08-21T09:42:23.097Z,59.86
2022-08-21T09:44:49.445Z,58.83
2022-08-21T09:47:21.853Z,58.52
2022-08-21T09:49:50.285Z,59.59
2022-08-21T09:52:20.719Z,59.57
2022-08-21T09:54:47.714Z,59.17
2022-08-21T09:57:38.964Z,59.68
2022-08-21T10:00:21.628Z,58.92
2022-08-21T10:02:48.229Z,58.49
2022-08-21T10:05:23.806Z,57.74
2022-08-21T10:07:50.628Z,58.00
2022-08-21T10:10:24.884Z,58.25
2022-08-21T10:13:17.393Z,58.42
2022-08-21T10:16:02.397Z,58.51
2022-08-21T10:18:35.667Z,57.56
2022-08-21T10:21:06.524Z,58.61
2022-08-21T10:23:43.544Z,57.40
2022-08-21T10:26:28.675Z,56.25
2022-08-21T10:29:07.134Z,55.72
2022-08-21T10:31:42.825Z,56.84
2022-08-21T10:34:12.148Z,56.59
2022-08-21T10:36:58.460Z,57.16
2022-08-21T10:39:35.047Z,57.94
2022-08-21T10:42:05.640Z,57.43
2022-08-21T10:44:50.905Z,58.32
2022-08-21T10:47:22.454Z,58.87
2022-08-21T10:50:09.636Z,57.35
2022-08-21T10:52:47.846Z,55.87
2022-08-21T10:55:19.191Z,56.08
2022-08-21T10:57:48.795Z,57.49
2022-08-21T11:00:27.781Z,56.79
2022-08-21T11:02:54.526Z,55.81
2022-08-21T11:05:24.047Z,56.50
2022-08-21T11:08:06.800Z,56.44
2022-08-21T11:10:40.898Z,57.42
2022-08-21T11:13:23.233Z,55.97
2022-08-21T11:16:06.858Z,56.23
2022-08-21T11:18:40.956Z,56.32
2022-08-21T11:21:26.210Z,56.44
2022-08-21T11:24:04.393Z,56.45
2022-08-21T11:26:32.308Z,56.13
2022-08-21T11:29:08.102Z,56.21
2022-08-21T11:31:37.505Z,56.25
2022-08-21T11:34:25.607Z,56.03
2022-08-21T11:37:02.702Z,54.61
2022-08-21T11:39:37.961Z,53.98
2022-08-21T11:42:22.794Z,55.90
2022-08-21T11:45:08.302Z,55.98
2022-08-21T11:47:54.925Z,56.06
2022-08-21T11:50:35.766Z,56.37
2022-08-21T11:53:05.449Z,55.27
2022-08-21T11:55:44.033Z,55.28
2022-08-21T11:58:13.421Z,55.08
2022-08-21T12:00:56.894Z,55.53
2022-08-21T12:03:29.019Z,55.37
2022-08-21T12:06:05.060Z,54.35
2022-08-21T12:08:31.343Z,53.99
2022-08-21T12:11:06.661Z,53.85
2022-08-21T12:13:40.699Z,54.38
2022-08-21T12:16:16.643Z,54.81
2022-08-21T12:18:43.949Z,54.73
2022-08-21T12:21:28.888Z,54.39
2022-08-21T12:24:07.510Z,54.16
2022-08-21T12:26:35.702Z,54.48
2022-08-21T12:29:06.598Z,54.32
2022-08-21T12:31:32.938Z,54.76
2022-08-21T12:34:00.822Z,55.44
2022-08-21T12:36:43.338Z,54.89
2022-08-21T12:39:15.182Z,55.71
2022-08-21T12:41:56.972Z,55.39
2022-08-21T12:44:36.714Z,55.73
2022-08-21T12:47:04.966Z,55.63
2022-08-21T12:49:34.667Z,55.08
2022-08-21T12:52:17.872Z,55.30
2022-08-21T12:54:44.992Z,55.31
2022-08-21T12:57:25.344Z,56.01
2022-08-21T12:59:56.453Z,55.01
2022-08-21T13:02:43.787Z,55.40
2022-08-21T13:05:14.768Z,56.51
2022-08-21T13:07:44.854Z,56.57
2022-08-21T13:10:25.226Z,56.84
2022-08-21T13:12:55.054Z,56.72
2022-08-21T13:15:33.473Z,56.68
2022-08-21T13:18:03.281Z,57.72
2022-08-21T13:20:31.773Z,58.74
2022-08-21T13:22:59.300Z,57.82
2022-08-21T13:25:27.820Z,58.24
2022-08-21T13:27:58.735Z,57.11
2022-08-21T13:30:25.224Z,57.78
2022-08-21T13:32:53.470Z,57.52
2022-08-21T13:35:21.579Z,57.53
2022-08-21T13:37:49.103Z,56.98
2022-08-21T13:40:17.344Z,56.97
2022-08-21T13:42:45.860Z,57.79
2022-08-21T13:45:13.873Z,57.88
2022-08-21T13:47:40.345Z,58.87
2022-08-21T13:50:08.603Z,60.08
2022-08-21T13:52:45.930Z,58.67
2022-08-21T13:55:13.920Z,56.91
2022-08-21T13:57:40.487Z,59.21
2022-08-21T14:00:13.575Z,57.82
2022-08-21T14:02:41.798Z,57.73
2022-08-21T14:05:14.767Z,58.07
2022-08-21T14:07:43.285Z,57.98
2022-08-21T14:10:16.225Z,60.59
2022-08-21T14:12:51.329Z,60.14
2022-08-21T14:15:18.649Z,59.22
2022-08-21T14:17:45.998Z,63.07
2022-08-21T14:20:25.828Z,61.75
2022-08-21T14:22:52.674Z,59.84
2022-08-21T14:25:28.376Z,60.67
2022-08-21T14:27:54.738Z,61.11
2022-08-21T14:30:27.155Z,60.42
2022-08-21T14:32:54.575Z,59.44
2022-08-21T14:35:23.830Z,61.78
2022-08-21T14:37:52.023Z,60.64
2022-08-21T14:40:20.753Z,62.74
2022-08-21T14:42:47.476Z,60.54
2022-08-21T14:45:16.821Z,58.32
2022-08-21T14:47:44.699Z,60.47
2022-08-21T14:50:11.804Z,62.13
2022-08-21T14:52:38.271Z,60.92
2022-08-21T14:55:05.640Z,60.11
2022-08-21T14:57:32.396Z,62.25
2022-08-21T15:00:02.049Z,58.31
2022-08-21T15:02:28.748Z,58.81
2022-08-21T15:04:55.086Z,60.85
2022-08-21T15:07:21.521Z,59.80
2022-08-21T15:09:47.828Z,58.89
2022-08-21T15:12:14.893Z,59.94
2022-08-21T15:14:41.517Z,62.32
2022-08-21T15:17:09.822Z,62.90
2022-08-21T15:19:36.641Z,62.91
2022-08-21T15:22:03.605Z,60.85
2022-08-21T15:24:29.952Z,61.00
2022-08-21T15:26:57.222Z,62.26
2022-08-21T15:29:23.553Z,62.12
2022-08-21T15:31:53.405Z,61.86
2022-08-21T15:34:20.098Z,62.14
2022-08-21T15:36:46.792Z,62.05
2022-08-21T15:39:13.800Z,61.09
2022-08-21T15:41:40.630Z,62.14
2022-08-21T15:44:07.067Z,61.49
2022-08-21T15:46:33.564Z,62.68
2022-08-21T15:49:00.188Z,63.02
2022-08-21T15:51:26.583Z,62.91
2022-08-21T15:53:53.137Z,63.20
2022-08-21T15:56:26.694Z,63.64
2022-08-21T15:58:54.454Z,63.38
2022-08-21T16:01:21.474Z,63.15
2022-08-21T16:03:49.836Z,61.55
2022-08-21T16:06:17.245Z,59.09
2022-08-21T16:08:43.536Z,62.32
2022-08-21T16:11:10.894Z,61.37
2022-08-21T16:13:39.088Z,63.40
2022-08-21T16:16:06.222Z,63.12
2022-08-21T16:18:33.090Z,64.74
2022-08-21T16:20:59.541Z,63.92
2022-08-21T16:23:25.918Z,63.44
2022-08-21T16:25:52.500Z,64.50
2022-08-21T16:28:20.946Z,64.31
2022-08-21T16:30:49.561Z,63.41
2022-08-21T16:33:35.993Z,64.66
2022-08-21T16:36:03.634Z,64.45
2022-08-21T16:38:30.449Z,61.31
2022-08-21T16:40:57.711Z,64.19
2022-08-21T16:43:26.142Z,63.78
2022-08-21T16:45:53.478Z,62.57
2022-08-21T16:48:19.812Z,64.88
2022-08-21T16:50:50.785Z,64.93
2022-08-21T16:53:17.415Z,64.97
2022-08-21T16:55:43.943Z,66.05
2022-08-21T16:58:16.654Z,65.64
2022-08-21T17:00:43.276Z,64.01
2022-08-21T17:03:13.480Z,65.37
2022-08-21T17:05:39.761Z,65.18
2022-08-21T17:08:06.981Z,64.06
2022-08-21T17:10:33.273Z,63.95
2022-08-21T17:13:00.866Z,64.69
2022-08-21T17:15:29.608Z,64.89
2022-08-21T17:17:56.565Z,64.94
2022-08-21T17:20:23.005Z,64.84
2022-08-21T17:22:49.458Z,65.54
2022-08-21T17:25:16.140Z,66.18
2022-08-21T17:27:44.021Z,64.96
2022-08-21T17:30:11.176Z,66.16
2022-08-21T17:32:38.199Z,66.67
2022-08-21T17:35:05.301Z,66.64
2022-08-21T17:37:31.703Z,66.57
2022-08-21T17:39:58.135Z,67.25
2022-08-21T17:42:25.194Z,68.08
2022-08-21T17:44:51.682Z,67.50
2022-08-21T17:47:18.007Z,67.93
2022-08-21T17:49:44.295Z,68.49
2022-08-21T17:52:10.681Z,68.08
2022-08-21T17:54:37.050Z,68.40
2022-08-21T17:57:04.112Z,68.44
2022-08-21T17:59:30.558Z,68.57
2022-08-21T18:02:01.283Z,69.04
2022-08-21T18:04:30.781Z,69.42
2022-08-21T18:06:57.180Z,69.72
2022-08-21T18:09:27.816Z,70.43
2022-08-21T18:11:57.894Z,70.82
2022-08-21T18:14:27.188Z,70.72
2022-08-21T18:16:53.596Z,70.77
2022-08-21T18:19:21.844Z,70.59
2022-08-21T18:21:48.254Z,71.26
2022-08-21T18:24:15.092Z,72.40
2022-08-21T18:26:42.045Z,73.10
2022-08-21T18:29:09.998Z,73.68
2022-08-21T18:31:37.821Z,74.24
2022-08-21T18:34:08.551Z,74.25
2022-08-21T18:36:34.880Z,73.50
2022-08-21T18:39:25.682Z,74.91
2022-08-21T18:41:48.070Z,75.69
2022-08-21T18:44:16.016Z,76.21
2022-08-21T18:46:48.548Z,75.99
2022-08-21T18:49:14.878Z,74.88
2022-08-21T18:54:28.140Z,75.59
2022-08-21T18:56:55.273Z,74.84
2022-08-21T18:59:21.771Z,74.62
2022-08-21T19:01:48.392Z,75.38
2022-08-21T19:04:25.428Z,74.80
2022-08-21T19:07:01.111Z,74.53
2022-08-21T19:09:27.447Z,75.01
2022-08-21T19:11:54.157Z,74.99
2022-08-21T19:14:20.538Z,74.48
2022-08-21T19:16:50.015Z,74.56
2022-08-21T19:19:18.056Z,74.99
2022-08-21T19:21:45.157Z,74.36
2022-08-21T19:24:17.796Z,74.48
2022-08-21T19:26:45.013Z,74.86
2022-08-21T19:29:12.141Z,74.53
2022-08-21T19:31:43.383Z,74.91
2022-08-21T19:34:12.837Z,75.60
2022-08-21T19:36:42.980Z,75.19
2022-08-21T19:39:10.971Z,74.94
2022-08-21T19:41:38.995Z,75.47
2022-08-21T19:44:08.176Z,75.38
2022-08-21T19:46:36.030Z,75.68
2022-08-21T19:49:04.461Z,75.57
2022-08-21T19:51:33.940Z,74.81
2022-08-21T19:54:00.428Z,75.55
2022-08-21T19:56:29.927Z,75.76
2022-08-21T19:58:56.628Z,76.26
2022-08-21T20:01:24.072Z,75.99
2022-08-21T20:03:54.159Z,75.98
2022-08-21T20:06:22.100Z,76.64
2022-08-21T20:08:50.935Z,77.08
2022-08-21T20:11:20.245Z,77.52
2022-08-21T20:13:46.673Z,77.86
2022-08-21T20:16:15.252Z,78.17
2022-08-21T20:18:41.814Z,77.95
2022-08-21T20:21:08.552Z,78.63
2022-08-21T20:23:35.221Z,78.23
2022-08-21T20:26:09.898Z,79.18
2022-08-21T20:28:36.913Z,79.07
2022-08-21T20:31:06.610Z,79.76
2022-08-21T20:33:36.449Z,78.76
2022-08-21T20:36:02.933Z,78.62
2022-08-21T20:38:31.684Z,78.81
2022-08-21T20:40:58.195Z,78.98
2022-08-21T20:43:26.682Z,77.85
2022-08-21T20:45:54.704Z,77.86
2022-08-21T20:48:31.839Z,77.44
2022-08-21T20:51:25.892Z,77.61
2022-08-21T20:53:59.149Z,78.49
2022-08-21T20:56:32.738Z,77.88
2022-08-21T20:59:07.429Z,78.51
2022-08-21T21:01:34.293Z,78.50
2022-08-21T21:04:19.599Z,78.87
2022-08-21T21:06:50.172Z,78.31
2022-08-21T21:09:23.111Z,79.31
2022-08-21T21:11:57.822Z,78.42
2022-08-21T21:14:30.193Z,79.26
2022-08-21T21:16:59.229Z,79.49
2022-08-21T21:19:41.600Z,78.56
2022-08-21T21:22:11.284Z,78.84
2022-08-21T21:24:51.238Z,79.05
2022-08-21T21:27:38.944Z,79.12
2022-08-21T21:30:05.375Z,79.25
2022-08-21T21:32:31.777Z,78.69
2022-08-21T21:34:58.311Z,79.21
2022-08-21T21:37:25.918Z,78.71
2022-08-21T21:40:03.420Z,78.63
2022-08-21T21:42:49.430Z,78.53
2022-08-21T21:45:15.700Z,79.09
2022-08-21T21:47:53.167Z,79.38
2022-08-21T21:50:42.842Z,79.73
2022-08-21T21:53:22.271Z,79.24
2022-08-21T21:56:00.907Z,79.37
2022-08-21T21:58:50.079Z,78.97
2022-08-21T22:01:24.706Z,78.89
2022-08-21T22:04:03.717Z,79.15
2022-08-21T22:06:35.852Z,78.42
2022-08-21T22:09:02.612Z,78.73
2022-08-21T22:11:29.496Z,78.69
2022-08-21T22:14:15.037Z,77.24
2022-08-21T22:16:43.769Z,77.86
2022-08-21T22:19:14.677Z,77.24
2022-08-21T22:21:45.302Z,77.78
2022-08-21T22:24:16.856Z,77.58
2022-08-21T22:26:48.191Z,77.25
2022-08-21T22:29:19.816Z,76.74
2022-08-21T22:32:01.021Z,76.08
2022-08-21T22:34:31.978Z,75.86
2022-08-21T22:37:02.279Z,75.67
2022-08-21T22:39:35.929Z,75.60
2022-08-21T22:42:07.147Z,75.88
2022-08-21T22:44:47.505Z,75.99
2022-08-21T22:47:19.426Z,75.56
2022-08-21T22:49:48.614Z,76.07
2022-08-21T22:52:18.501Z,75.93
2022-08-21T22:54:45.387Z,75.62
2022-08-21T22:57:32.568Z,76.14
2022-08-21T22:59:58.845Z,75.98
2022-08-21T23:02:30.280Z,75.51
2022-08-21T23:04:58.122Z,75.78
2022-08-21T23:07:43.554Z,75.45
2022-08-21T23:10:33.925Z,75.77
2022-08-21T23:13:09.326Z,75.63
2022-08-21T23:15:45.353Z,76.27
2022-08-21T23:18:18.047Z,76.71
2022-08-21T23:21:10.702Z,76.55
2022-08-21T23:23:59.864Z,77.21
2022-08-21T23:27:03.119Z,77.29
2022-08-21T23:29:42.383Z,76.79
2022-08-21T23:32:25.092Z,76.23
2022-08-21T23:35:04.240Z,76.32
2022-08-21T23:37:51.343Z,75.79
2022-08-21T23:40:36.697Z,75.78
2022-08-21T23:43:16.238Z,76.05
2022-08-21T23:45:55.985Z,76.01
2022-08-21T23:48:29.435Z,75.99
2022-08-21T23:51:03.337Z,76.67
2022-08-21T23:53:38.434Z,76.55
2022-08-21T23:56:13.651Z,76.81
2022-08-21T23:58:58.780Z,76.42
